Terminal Aerodrome Forecast
Issued by NWS

Home | Current Version | Previous Version | Text Only | Print | Product List | Glossary On
Versions: 1 2 3 4 5 6 7 8 9 10 11 12
802
FTUS46 KHNX 200520
TAFMCE
TAF
KMCE 200520Z 2006/2106 29007KT P6SM BKN070
      TEMPO 2010/2014 5SM -RA BKN050
     FM201400 32012KT P6SM SCT050
      TEMPO 2020/2024 32015G22KT=

USA.gov is the U.S. government's official web portal to all federal, state and local government web resources and services.